createdAt,value
2018-12-14T00:00:02.143Z,19.48
2018-12-14T00:02:38.604Z,19.75
2018-12-14T00:05:09.557Z,19.57
2018-12-14T00:07:40.374Z,19.52
2018-12-14T00:10:09.454Z,20.02
2018-12-14T00:12:38.258Z,20.27
2018-12-14T00:15:07.644Z,19.70
2018-12-14T00:17:36.439Z,19.67
2018-12-14T00:20:07.441Z,19.70
2018-12-14T00:22:36.310Z,19.07
2018-12-14T00:25:05.678Z,19.60
2018-12-14T00:27:34.534Z,20.77
2018-12-14T00:30:04.070Z,19.75
2018-12-14T00:32:32.918Z,20.35
2018-12-14T00:35:01.739Z,19.50
2018-12-14T00:37:30.468Z,19.42
2018-12-14T00:39:59.244Z,20.08
2018-12-14T00:42:28.012Z,19.92
2018-12-14T00:44:56.793Z,19.80
2018-12-14T00:47:25.554Z,21.37
2018-12-14T00:49:54.398Z,19.62
2018-12-14T00:52:23.241Z,20.60
2018-12-14T00:54:52.021Z,19.95
2018-12-14T00:57:20.806Z,20.92
2018-12-14T00:59:49.632Z,20.08
2018-12-14T01:02:23.925Z,20.80
2018-12-14T01:04:52.685Z,20.25
2018-12-14T01:07:21.538Z,19.75
2018-12-14T01:09:50.386Z,19.98
2018-12-14T01:12:19.156Z,19.20
2018-12-14T01:14:48.067Z,20.25
2018-12-14T01:17:17.029Z,20.45
2018-12-14T01:19:45.925Z,19.50
2018-12-14T01:22:14.706Z,20.88
2018-12-14T01:24:43.520Z,20.72
2018-12-14T01:27:12.335Z,19.48
2018-12-14T01:29:41.154Z,19.35
2018-12-14T01:32:09.970Z,19.32
2018-12-14T01:34:38.807Z,19.25
2018-12-14T01:37:07.598Z,18.87
2018-12-14T01:39:36.433Z,18.48
2018-12-14T01:42:05.280Z,18.12
2018-12-14T01:44:34.150Z,18.15
2018-12-14T01:47:03.066Z,18.07
2018-12-14T01:49:31.881Z,17.82
2018-12-14T01:52:00.821Z,18.23
2018-12-14T01:54:29.629Z,18.02
2018-12-14T01:56:58.513Z,17.87
2018-12-14T01:59:27.482Z,17.80
2018-12-14T02:01:56.306Z,18.23
2018-12-14T02:04:25.205Z,17.75
2018-12-14T02:06:54.010Z,17.52
2018-12-14T02:09:23.108Z,17.70
2018-12-14T02:11:51.919Z,17.95
2018-12-14T02:14:20.732Z,17.12
2018-12-14T02:16:49.518Z,17.00
2018-12-14T02:19:18.294Z,17.60
2018-12-14T02:21:47.115Z,18.05
2018-12-14T02:24:16.000Z,18.00
2018-12-14T02:26:44.848Z,17.25
2018-12-14T02:29:13.622Z,18.15
2018-12-14T02:31:42.402Z,17.77
2018-12-14T02:34:11.176Z,18.07
2018-12-14T02:36:39.966Z,17.60
2018-12-14T02:39:08.994Z,17.83
2018-12-14T02:41:37.792Z,17.65
2018-12-14T02:44:06.585Z,16.55
2018-12-14T02:46:35.458Z,17.13
2018-12-14T02:49:04.303Z,17.17
2018-12-14T02:51:33.095Z,16.70
2018-12-14T02:54:01.867Z,16.30
2018-12-14T02:56:30.738Z,15.23
2018-12-14T02:58:59.585Z,15.05
2018-12-14T03:01:28.370Z,15.58
2018-12-14T03:03:57.313Z,14.83
2018-12-14T03:06:26.193Z,14.25
2018-12-14T03:08:54.975Z,14.33
2018-12-14T03:11:23.763Z,13.65
2018-12-14T03:13:52.566Z,14.75
2018-12-14T03:16:21.372Z,15.50
2018-12-14T03:18:50.170Z,15.63
2018-12-14T03:21:18.982Z,14.87
2018-12-14T03:23:47.801Z,16.40
2018-12-14T03:26:16.651Z,16.62
2018-12-14T03:28:45.504Z,16.40
2018-12-14T03:31:14.387Z,16.75
2018-12-14T03:33:43.271Z,16.05
2018-12-14T03:36:12.088Z,16.10
2018-12-14T03:38:40.925Z,16.42
2018-12-14T03:41:09.821Z,16.73
2018-12-14T03:43:38.679Z,16.20
2018-12-14T03:46:07.517Z,16.32
2018-12-14T03:48:36.385Z,14.65
2018-12-14T03:51:05.217Z,13.30
2018-12-14T03:53:34.053Z,13.13
2018-12-14T03:56:02.893Z,12.30
2018-12-14T03:58:32.679Z,12.28
2018-12-14T04:01:01.464Z,10.72
2018-12-14T04:03:30.239Z,10.70
2018-12-14T04:05:59.079Z,9.93
2018-12-14T04:08:28.012Z,9.10
2018-12-14T04:10:56.854Z,9.03
2018-12-14T04:13:25.661Z,8.80
2018-12-14T04:15:54.457Z,9.00
2018-12-14T04:18:23.225Z,10.53
2018-12-14T04:20:52.110Z,14.03
2018-12-14T04:23:20.902Z,15.18
2018-12-14T04:25:49.696Z,15.37
2018-12-14T04:28:18.571Z,16.40
2018-12-14T04:30:47.385Z,16.10
2018-12-14T04:33:16.666Z,16.53
2018-12-14T04:35:45.672Z,17.55
2018-12-14T04:38:16.577Z,16.82
2018-12-14T04:40:45.402Z,17.27
2018-12-14T04:43:14.224Z,16.52
2018-12-14T04:45:43.017Z,17.00
2018-12-14T04:48:11.847Z,17.12
2018-12-14T04:50:40.698Z,16.60
2018-12-14T04:53:09.537Z,16.42
2018-12-14T04:55:38.338Z,17.60
2018-12-14T04:58:07.146Z,16.52
2018-12-14T05:00:36.048Z,17.15
2018-12-14T05:03:04.879Z,16.67
2018-12-14T05:05:33.838Z,17.70
2018-12-14T05:08:02.659Z,17.23
2018-12-14T05:10:31.527Z,15.98
2018-12-14T05:13:00.316Z,16.32
2018-12-14T05:15:29.105Z,16.70
2018-12-14T05:17:57.873Z,16.73
2018-12-14T05:20:26.658Z,15.87
2018-12-14T05:22:55.506Z,16.10
2018-12-14T05:25:24.321Z,15.67
2018-12-14T05:27:53.187Z,16.37
2018-12-14T05:30:22.098Z,16.52
2018-12-14T05:32:50.889Z,16.97
2018-12-14T05:35:19.678Z,16.65
2018-12-14T05:37:48.481Z,15.48
2018-12-14T05:40:17.268Z,15.90
2018-12-14T05:42:47.001Z,15.65
2018-12-14T05:45:15.809Z,15.58
2018-12-14T05:47:44.902Z,16.35
2018-12-14T05:50:13.709Z,15.93
2018-12-14T05:52:42.482Z,16.40
2018-12-14T05:55:11.278Z,16.57
2018-12-14T05:57:40.060Z,14.78
2018-12-14T06:00:10.942Z,15.32
2018-12-14T06:02:40.388Z,16.27
2018-12-14T06:05:09.280Z,15.20
2018-12-14T06:07:38.121Z,15.90
2018-12-14T06:10:07.611Z,16.45
2018-12-14T06:12:36.543Z,16.55
2018-12-14T06:15:06.224Z,16.62
2018-12-14T06:17:34.998Z,16.45
2018-12-14T06:20:04.632Z,16.82
2018-12-14T06:22:33.372Z,17.00
2018-12-14T06:25:02.329Z,17.27
2018-12-14T06:27:31.137Z,17.47
2018-12-14T06:29:59.903Z,16.80
2018-12-14T06:32:28.655Z,16.52
2018-12-14T06:34:57.465Z,17.17
2018-12-14T06:37:26.540Z,16.20
2018-12-14T06:39:55.397Z,17.50
2018-12-14T06:42:24.238Z,16.93
2018-12-14T06:44:53.094Z,17.52
2018-12-14T06:47:21.878Z,17.98
2018-12-14T06:49:50.720Z,17.05
2018-12-14T06:52:19.582Z,17.20
2018-12-14T06:54:48.362Z,17.35
2018-12-14T06:57:18.788Z,18.50
2018-12-14T06:59:47.521Z,18.35
2018-12-14T07:02:16.389Z,18.30
2018-12-14T07:04:45.154Z,17.50
2018-12-14T07:07:13.956Z,18.23
2018-12-14T07:09:42.877Z,17.92
2018-12-14T07:12:11.813Z,19.00
2018-12-14T07:14:40.599Z,18.55
2018-12-14T07:17:09.370Z,19.10
2018-12-14T07:19:39.346Z,18.60
2018-12-14T07:22:08.213Z,17.77
2018-12-14T07:24:36.971Z,19.43
2018-12-14T07:27:05.753Z,18.77
2018-12-14T07:29:34.677Z,18.65
2018-12-14T07:32:04.683Z,19.17
2018-12-14T07:34:33.458Z,18.90
2018-12-14T07:37:02.255Z,18.93
2018-12-14T07:39:31.185Z,18.47
2018-12-14T07:41:59.970Z,18.33
2018-12-14T07:44:29.689Z,18.57
2018-12-14T07:46:58.556Z,18.48
2018-12-14T07:49:27.361Z,18.57
2018-12-14T07:51:56.322Z,18.75
2018-12-14T07:54:25.175Z,19.50
2018-12-14T07:56:53.989Z,19.05
2018-12-14T07:59:22.771Z,19.02
2018-12-14T08:01:51.633Z,18.85
2018-12-14T08:04:20.406Z,18.87
2018-12-14T08:06:49.225Z,19.55
2018-12-14T08:09:18.589Z,19.67
2018-12-14T08:11:47.847Z,20.40
2018-12-14T08:14:16.688Z,19.92
2018-12-14T08:16:45.525Z,19.95
2018-12-14T08:19:14.362Z,20.23
2018-12-14T08:21:43.154Z,19.90
2018-12-14T08:24:11.952Z,19.25
2018-12-14T08:26:40.843Z,20.37
2018-12-14T08:29:09.658Z,20.15
2018-12-14T08:31:38.531Z,20.10
2018-12-14T08:34:07.341Z,20.47
2018-12-14T08:36:36.162Z,20.00
2018-12-14T08:39:06.788Z,21.10
2018-12-14T08:41:36.033Z,20.60
2018-12-14T08:44:04.853Z,20.82
2018-12-14T08:46:33.642Z,22.07
2018-12-14T08:49:02.523Z,21.60
2018-12-14T08:51:31.307Z,21.40
2018-12-14T08:54:00.245Z,20.17
2018-12-14T08:56:29.050Z,22.27
2018-12-14T08:58:57.864Z,21.45
2018-12-14T09:01:26.671Z,21.40
2018-12-14T09:03:55.454Z,20.23
2018-12-14T09:06:24.280Z,20.85
2018-12-14T09:08:53.118Z,22.10
2018-12-14T09:11:22.001Z,20.90
2018-12-14T09:13:50.897Z,21.42
2018-12-14T09:16:19.806Z,20.90
2018-12-14T09:18:48.587Z,22.30
2018-12-14T09:21:17.476Z,20.15
2018-12-14T09:23:46.411Z,20.45
2018-12-14T09:26:15.398Z,21.57
2018-12-14T09:28:44.267Z,21.55
2018-12-14T09:31:13.190Z,20.55
2018-12-14T09:33:42.194Z,21.02
2018-12-14T09:36:11.014Z,21.27
2018-12-14T09:38:39.821Z,19.73
2018-12-14T09:41:08.695Z,21.20
2018-12-14T09:43:37.510Z,20.15
2018-12-14T09:46:06.323Z,21.35
2018-12-14T09:48:35.126Z,20.95
2018-12-14T09:51:04.071Z,20.57
2018-12-14T09:53:32.930Z,21.17
2018-12-14T09:56:01.773Z,20.43
2018-12-14T09:58:30.576Z,20.52
2018-12-14T10:00:59.405Z,19.90
2018-12-14T10:03:28.263Z,19.60
2018-12-14T10:05:57.051Z,20.35
2018-12-14T10:08:26.175Z,20.05
2018-12-14T10:10:55.241Z,20.20
2018-12-14T10:13:24.253Z,19.62
2018-12-14T10:15:54.346Z,19.50
2018-12-14T10:18:23.329Z,20.23
2018-12-14T10:20:52.149Z,20.90
2018-12-14T10:23:21.056Z,20.37
2018-12-14T10:25:49.867Z,20.25
2018-12-14T10:28:18.739Z,20.23
2018-12-14T10:30:47.851Z,19.35
2018-12-14T10:33:16.647Z,20.45
2018-12-14T10:35:45.464Z,20.17
2018-12-14T10:38:14.259Z,20.68
2018-12-14T10:40:43.085Z,19.98
2018-12-14T10:43:11.874Z,19.87
2018-12-14T10:45:41.072Z,20.00
2018-12-14T10:48:09.926Z,19.60
2018-12-14T10:50:39.733Z,20.75
2018-12-14T10:53:12.189Z,20.30
2018-12-14T10:55:41.325Z,19.73
2018-12-14T10:58:10.318Z,19.43
2018-12-14T11:00:44.559Z,19.30
2018-12-14T11:03:13.460Z,20.08
2018-12-14T11:05:42.280Z,20.52
2018-12-14T11:08:11.173Z,19.95
2018-12-14T11:10:39.987Z,19.80
2018-12-14T11:13:08.811Z,20.72
2018-12-14T11:15:37.606Z,19.55
2018-12-14T11:18:06.397Z,20.55
2018-12-14T11:20:35.166Z,19.98
2018-12-14T11:23:03.938Z,19.92
2018-12-14T11:25:32.728Z,20.23
2018-12-14T11:28:01.548Z,20.23
2018-12-14T11:30:30.304Z,19.95
2018-12-14T11:32:59.066Z,19.90
2018-12-14T11:35:27.893Z,19.90
2018-12-14T11:37:56.689Z,19.77
2018-12-14T11:40:25.573Z,19.48
2018-12-14T11:42:54.357Z,18.35
2018-12-14T11:45:23.279Z,16.93
2018-12-14T11:47:52.096Z,16.30
2018-12-14T11:50:20.874Z,16.30
2018-12-14T11:52:49.630Z,15.75
2018-12-14T11:55:18.403Z,15.37
2018-12-14T11:57:47.178Z,15.65
2018-12-14T12:00:16.217Z,16.70
2018-12-14T12:02:45.034Z,15.18
2018-12-14T12:05:13.819Z,15.68
2018-12-14T12:07:43.427Z,15.60
2018-12-14T12:10:12.326Z,15.28
2018-12-14T12:12:41.306Z,15.23
2018-12-14T12:15:10.199Z,15.65
2018-12-14T12:17:40.040Z,15.13
2018-12-14T12:20:09.080Z,15.78
2018-12-14T12:22:37.940Z,15.08
2018-12-14T12:25:06.859Z,15.23
2018-12-14T12:27:35.775Z,15.78
2018-12-14T12:30:05.091Z,15.70
2018-12-14T12:32:33.873Z,16.20
2018-12-14T12:35:02.725Z,14.93
2018-12-14T12:37:31.642Z,14.98
2018-12-14T12:40:00.500Z,14.58
2018-12-14T12:42:29.283Z,14.65
2018-12-14T12:44:58.122Z,14.33
2018-12-14T12:47:27.330Z,15.07
2018-12-14T12:49:56.107Z,13.43
2018-12-14T12:52:24.906Z,13.93
2018-12-14T12:54:53.759Z,15.23
2018-12-14T12:57:22.583Z,15.48
2018-12-14T12:59:51.383Z,14.38
2018-12-14T13:02:20.142Z,14.78
2018-12-14T13:04:49.358Z,14.58
2018-12-14T13:07:18.150Z,14.65
2018-12-14T13:09:46.957Z,14.95
2018-12-14T13:12:15.767Z,14.50
2018-12-14T13:14:44.623Z,14.73
2018-12-14T13:17:13.441Z,13.95
2018-12-14T13:19:42.237Z,13.88
2018-12-14T13:22:11.030Z,14.20
2018-12-14T13:24:39.926Z,13.57
2018-12-14T13:27:08.737Z,13.67
2018-12-14T13:29:37.541Z,13.10
2018-12-14T13:32:06.329Z,13.15
2018-12-14T13:34:35.122Z,14.00
2018-12-14T13:37:04.018Z,12.93
2018-12-14T13:39:32.844Z,13.70
2018-12-14T13:42:01.706Z,14.10
2018-12-14T13:44:31.289Z,13.32
2018-12-14T13:47:00.152Z,13.62
2018-12-14T13:49:28.949Z,13.53
2018-12-14T13:51:57.739Z,13.60
2018-12-14T13:54:26.526Z,13.55
2018-12-14T13:56:55.413Z,13.98
2018-12-14T13:59:24.453Z,13.45
2018-12-14T14:01:53.253Z,13.15
2018-12-14T14:04:22.043Z,14.03
2018-12-14T14:06:50.856Z,13.45
2018-12-14T14:09:19.946Z,13.43
2018-12-14T14:11:48.773Z,14.07
2018-12-14T14:14:18.711Z,14.23
2018-12-14T14:16:49.108Z,14.28
2018-12-14T14:19:17.870Z,13.88
2018-12-14T14:21:46.680Z,13.97
2018-12-14T14:24:15.463Z,13.78
2018-12-14T14:26:44.702Z,13.75
2018-12-14T14:29:13.618Z,13.88
2018-12-14T14:31:42.418Z,13.70
2018-12-14T14:34:11.213Z,14.07
2018-12-14T14:36:39.998Z,14.28
2018-12-14T14:39:08.798Z,13.53
2018-12-14T14:41:37.689Z,14.63
2018-12-14T14:44:06.482Z,13.65
2018-12-14T14:46:35.433Z,12.68
2018-12-14T14:49:04.329Z,13.50
2018-12-14T14:51:33.414Z,14.28
2018-12-14T14:54:03.263Z,13.30
2018-12-14T14:56:32.066Z,13.30
2018-12-14T14:59:00.874Z,13.75
2018-12-14T15:01:29.860Z,12.80
2018-12-14T15:03:58.662Z,13.45
2018-12-14T15:06:27.463Z,11.53
2018-12-14T15:08:56.647Z,11.80
2018-12-14T15:11:25.567Z,11.30
2018-12-14T15:13:54.375Z,11.30
2018-12-14T15:16:23.226Z,11.63
2018-12-14T15:18:52.122Z,11.60
2018-12-14T15:21:20.889Z,11.03
2018-12-14T15:23:49.690Z,11.28
2018-12-14T15:26:18.680Z,10.25
2018-12-14T15:28:47.469Z,10.45
2018-12-14T15:31:16.262Z,10.80
2018-12-14T15:33:45.059Z,10.58
2018-12-14T15:36:14.046Z,11.37
2018-12-14T15:38:42.892Z,10.80
2018-12-14T15:41:11.845Z,10.90
2018-12-14T15:43:40.632Z,10.93
2018-12-14T15:46:09.639Z,10.47
2018-12-14T15:48:38.453Z,10.90
2018-12-14T15:51:07.235Z,10.70
2018-12-14T15:53:36.131Z,10.63
2018-12-14T15:56:04.932Z,10.55
2018-12-14T15:58:33.843Z,11.20
2018-12-14T16:01:02.789Z,10.78
2018-12-14T16:03:32.654Z,10.60
2018-12-14T16:06:01.419Z,10.93
2018-12-14T16:08:30.238Z,11.30
2018-12-14T16:10:59.043Z,11.22
2018-12-14T16:13:27.870Z,10.85
2018-12-14T16:15:56.692Z,10.90
2018-12-14T16:18:25.595Z,10.40
2018-12-14T16:20:54.425Z,10.60
2018-12-14T16:23:23.237Z,10.45
2018-12-14T16:25:52.315Z,10.43
2018-12-14T16:28:21.179Z,11.18
2018-12-14T16:30:50.010Z,11.05
2018-12-14T16:33:18.955Z,10.45
2018-12-14T16:35:47.730Z,10.50
2018-12-14T16:38:16.544Z,11.18
2018-12-14T16:40:45.351Z,11.57
2018-12-14T16:43:14.219Z,11.70
2018-12-14T16:45:43.014Z,12.30
2018-12-14T16:48:11.782Z,10.90
2018-12-14T16:50:40.623Z,11.63
2018-12-14T16:53:09.412Z,11.13
2018-12-14T16:55:38.280Z,11.83
2018-12-14T16:58:07.039Z,11.33
2018-12-14T17:00:35.968Z,11.38
2018-12-14T17:03:05.247Z,11.90
2018-12-14T17:05:34.029Z,12.13
2018-12-14T17:08:02.864Z,11.90
2018-12-14T17:10:31.694Z,11.63
2018-12-14T17:13:00.544Z,12.35
2018-12-14T17:15:33.188Z,14.30
2018-12-14T17:18:00.089Z,13.90
2018-12-14T17:20:28.893Z,13.80
2018-12-14T17:22:57.675Z,14.65
2018-12-14T17:25:26.434Z,15.53
2018-12-14T17:27:55.294Z,15.95
2018-12-14T17:30:24.082Z,15.98
2018-12-14T17:32:52.863Z,15.63
2018-12-14T17:35:21.649Z,15.70
2018-12-14T17:37:50.527Z,16.10
2018-12-14T17:40:19.304Z,16.07
2018-12-14T17:42:50.211Z,16.35
2018-12-14T17:45:19.066Z,16.32
2018-12-14T17:47:47.919Z,17.10
2018-12-14T17:50:16.766Z,15.65
2018-12-14T17:52:45.561Z,16.05
2018-12-14T17:55:14.351Z,15.38
2018-12-14T17:57:43.127Z,16.23
2018-12-14T18:00:12.039Z,15.98
2018-12-14T18:02:41.974Z,14.60
2018-12-14T18:05:10.747Z,16.23
2018-12-14T18:07:39.545Z,15.47
2018-12-14T18:10:08.331Z,14.67
2018-12-14T18:12:37.165Z,14.90
2018-12-14T18:15:06.147Z,13.70
2018-12-14T18:17:34.926Z,13.00
2018-12-14T18:20:04.598Z,12.63
2018-12-14T18:22:33.484Z,12.65
2018-12-14T18:25:02.566Z,12.15
2018-12-14T18:27:31.486Z,12.43
2018-12-14T18:30:00.461Z,12.73
2018-12-14T18:32:29.278Z,12.33
2018-12-14T18:34:58.071Z,12.18
2018-12-14T18:37:26.871Z,12.85
2018-12-14T18:39:55.738Z,12.70
2018-12-14T18:42:24.521Z,12.55
2018-12-14T18:44:53.328Z,12.82
2018-12-14T18:47:22.345Z,12.63
2018-12-14T18:49:51.134Z,13.03
2018-12-14T18:52:19.994Z,12.70
2018-12-14T18:54:48.889Z,13.43
2018-12-14T18:57:17.642Z,13.40
2018-12-14T18:59:46.418Z,13.85
2018-12-14T19:02:15.302Z,14.40
2018-12-14T19:04:44.089Z,15.00
2018-12-14T19:07:12.937Z,15.00
2018-12-14T19:09:41.822Z,13.98
2018-12-14T19:12:11.064Z,13.90
2018-12-14T19:14:39.824Z,13.15
2018-12-14T19:17:08.606Z,13.38
2018-12-14T19:19:37.365Z,13.00
2018-12-14T19:22:06.295Z,12.43
2018-12-14T19:24:35.215Z,12.37
2018-12-14T19:27:04.179Z,12.15
2018-12-14T19:29:32.973Z,16.20
2018-12-14T19:32:01.791Z,60.80
2018-12-14T19:34:31.565Z,99.63
2018-12-14T19:37:00.563Z,44.42
2018-12-14T19:39:29.478Z,15.57
2018-12-14T19:41:58.266Z,29.47
2018-12-14T19:44:27.186Z,15.83
2018-12-14T19:46:57.914Z,20.57
2018-12-14T19:49:26.865Z,17.40
2018-12-14T19:51:56.453Z,13.55
2018-12-14T19:54:25.531Z,13.05
2018-12-14T19:56:54.403Z,12.98
2018-12-14T19:59:23.311Z,13.75
2018-12-14T20:01:52.086Z,13.55
2018-12-14T20:04:20.913Z,12.50
2018-12-14T20:06:49.714Z,12.90
2018-12-14T20:09:18.571Z,12.73
2018-12-14T20:11:47.482Z,13.38
2018-12-14T20:14:17.401Z,12.93
2018-12-14T20:16:47.285Z,13.60
2018-12-14T20:19:16.097Z,12.63
2018-12-14T20:21:44.866Z,11.95
2018-12-14T20:24:13.678Z,12.45
2018-12-14T20:26:42.494Z,11.57
2018-12-14T20:29:11.336Z,11.28
2018-12-14T20:31:40.144Z,11.55
2018-12-14T20:34:08.961Z,10.90
2018-12-14T20:36:37.894Z,14.00
2018-12-14T20:39:07.578Z,28.50
2018-12-14T20:41:36.464Z,18.40
2018-12-14T20:44:05.293Z,11.05
2018-12-14T20:46:34.181Z,11.18
2018-12-14T20:49:03.070Z,11.78
2018-12-14T20:51:31.956Z,11.22
2018-12-14T20:54:02.042Z,10.60
2018-12-14T20:56:30.847Z,11.65
2018-12-14T20:58:59.713Z,11.90
2018-12-14T21:01:28.536Z,11.40
2018-12-14T21:03:57.340Z,11.10
2018-12-14T21:06:26.127Z,11.10
2018-12-14T21:08:54.928Z,10.70
2018-12-14T21:11:23.726Z,10.20
2018-12-14T21:13:52.631Z,10.38
2018-12-14T21:16:25.881Z,10.43
2018-12-14T21:18:52.304Z,10.88
2018-12-14T21:21:21.251Z,10.05
2018-12-14T21:23:50.090Z,10.45
2018-12-14T21:26:18.906Z,10.65
2018-12-14T21:28:47.861Z,10.82
2018-12-14T21:31:16.698Z,10.90
2018-12-14T21:33:45.566Z,11.18
2018-12-14T21:36:14.478Z,10.60
2018-12-14T21:38:43.326Z,10.13
2018-12-14T21:41:12.185Z,10.55
2018-12-14T21:43:41.008Z,11.18
2018-12-14T21:46:14.212Z,10.72
2018-12-14T21:48:43.011Z,10.93
2018-12-14T21:51:11.897Z,10.40
2018-12-14T21:53:40.857Z,10.90
2018-12-14T21:56:09.841Z,10.95
2018-12-14T21:58:38.652Z,10.57
2018-12-14T22:01:07.750Z,11.03
2018-12-14T22:03:36.591Z,11.20
2018-12-14T22:06:05.528Z,10.73
2018-12-14T22:08:34.347Z,11.22
2018-12-14T22:11:03.182Z,10.67
2018-12-14T22:13:32.102Z,11.07
2018-12-14T22:16:00.914Z,10.65
2018-12-14T22:18:29.838Z,10.80
2018-12-14T22:20:58.716Z,10.32
2018-12-14T22:23:27.558Z,10.08
2018-12-14T22:25:56.384Z,10.50
2018-12-14T22:28:25.216Z,10.20
2018-12-14T22:30:54.053Z,10.17
2018-12-14T22:33:22.950Z,10.83
2018-12-14T22:35:51.769Z,10.40
2018-12-14T22:38:20.578Z,9.87
2018-12-14T22:40:49.435Z,10.30
2018-12-14T22:43:18.262Z,9.85
2018-12-14T22:45:47.115Z,10.20
2018-12-14T22:48:15.907Z,10.05
2018-12-14T22:50:44.717Z,11.22
2018-12-14T22:53:13.499Z,10.93
2018-12-14T22:55:42.316Z,10.38
2018-12-14T22:58:11.135Z,9.90
2018-12-14T23:00:45.402Z,9.83
2018-12-14T23:03:14.247Z,10.03
2018-12-14T23:05:43.164Z,9.73
2018-12-14T23:08:11.974Z,9.77
2018-12-14T23:10:40.974Z,9.50
2018-12-14T23:13:10.919Z,10.10
2018-12-14T23:15:39.777Z,9.40
2018-12-14T23:18:08.592Z,9.90
2018-12-14T23:20:37.443Z,9.08
2018-12-14T23:23:06.353Z,9.05
2018-12-14T23:25:35.171Z,9.20
2018-12-14T23:28:03.998Z,9.25
2018-12-14T23:30:32.850Z,9.43
2018-12-14T23:33:01.675Z,8.95
2018-12-14T23:35:30.513Z,9.00
2018-12-14T23:37:59.413Z,9.05
2018-12-14T23:40:28.237Z,9.50
2018-12-14T23:42:57.047Z,9.20
2018-12-14T23:45:25.860Z,9.48
2018-12-14T23:47:54.728Z,9.10
2018-12-14T23:50:23.529Z,9.43
2018-12-14T23:52:52.338Z,9.00
2018-12-14T23:55:21.183Z,9.57
2018-12-14T23:57:50.074Z,8.53
